Pico Rivera, California
Current Conditions -  °F | °C
As of 12:53 AM on Sunday 23 Nov 2014 (Local Time) from KFUL Reporting Station
Clear Clear  
Wind Chill: 56°   Ceiling: Unl
Heat Index: 56°   Visibility: 10mi
Dew Point: 53°   Wind: 5mph
Humidity: 90%   Direction: 70°ENE
Pressure: 30.03"   Gusts: NA
Location:  33.98°N, 118.08°W
Report Text: KFUL 230853Z 07004KT 10SM CLR 13/12 A3003 RMK AO2 SLP167 T01330117 58002
Loading
Personal Weather Stations






























Interactive Weather Map New forecast layout! Learn more

10-Day Weather Forecast

Advertisements
Track Severe Weather on mobile